Terminal Aerodrome Forecast
Issued by NWS Memphis, TN

Home | Current Version | Previous Version | Text Only | Print | Product List | Glossary On
Versions: 1 2 3 4 5 6 7 8 9 10 11 12 13
000
FTUS44 KMEG 162300
TAFJBR
TAF
KJBR 162339Z 1700/1724 04006KT P6SM BKN050 OVC070
      TEMPO 1710/1714 4SM BR BKN025
     FM171400 11004KT P6SM BKN035
     FM171900 21004KT P6SM BKN035=

USA.gov is the U.S. government's official web portal to all federal, state and local government web resources and services.